sensor_id;sensor_type;location;lat;lon;timestamp;P1;durP1;ratioP1;P2;durP2;ratioP2
21501;SDS011;27639;48.674;9.242;2022-08-19T00:01:20;13.15;;;10.45;;
21501;SDS011;27639;48.674;9.242;2022-08-19T00:03:47;13.88;;;11.15;;
21501;SDS011;27639;48.674;9.242;2022-08-19T00:06:13;14.15;;;10.68;;
21501;SDS011;27639;48.674;9.242;2022-08-19T00:08:40;14.07;;;10.88;;
21501;SDS011;27639;48.674;9.242;2022-08-19T00:11:05;14.05;;;11.27;;
21501;SDS011;27639;48.674;9.242;2022-08-19T00:13:32;15.82;;;11.68;;
21501;SDS011;27639;48.674;9.242;2022-08-19T00:15:58;15.85;;;12.25;;
21501;SDS011;27639;48.674;9.242;2022-08-19T00:18:24;13.77;;;10.90;;
21501;SDS011;27639;48.674;9.242;2022-08-19T00:20:50;13.98;;;10.80;;
21501;SDS011;27639;48.674;9.242;2022-08-19T00:23:16;13.93;;;11.07;;
21501;SDS011;27639;48.674;9.242;2022-08-19T00:25:42;16.67;;;12.15;;
21501;SDS011;27639;48.674;9.242;2022-08-19T00:28:07;14.32;;;10.75;;
21501;SDS011;27639;48.674;9.242;2022-08-19T00:30:33;16.02;;;11.65;;
21501;SDS011;27639;48.674;9.242;2022-08-19T00:32:59;14.93;;;11.07;;
21501;SDS011;27639;48.674;9.242;2022-08-19T00:35:24;15.23;;;11.88;;
21501;SDS011;27639;48.674;9.242;2022-08-19T00:37:52;15.52;;;12.18;;
21501;SDS011;27639;48.674;9.242;2022-08-19T00:40:19;16.63;;;13.20;;
21501;SDS011;27639;48.674;9.242;2022-08-19T00:42:44;15.95;;;12.10;;
21501;SDS011;27639;48.674;9.242;2022-08-19T00:45:13;16.67;;;12.20;;
21501;SDS011;27639;48.674;9.242;2022-08-19T00:47:42;17.75;;;13.23;;
21501;SDS011;27639;48.674;9.242;2022-08-19T00:50:10;18.60;;;11.60;;
21501;SDS011;27639;48.674;9.242;2022-08-19T00:52:41;17.83;;;12.95;;
21501;SDS011;27639;48.674;9.242;2022-08-19T00:55:11;18.30;;;12.73;;
21501;SDS011;27639;48.674;9.242;2022-08-19T00:57:45;17.10;;;12.57;;
21501;SDS011;27639;48.674;9.242;2022-08-19T01:00:15;16.70;;;11.40;;
21501;SDS011;27639;48.674;9.242;2022-08-19T01:02:42;15.18;;;11.60;;
21501;SDS011;27639;48.674;9.242;2022-08-19T01:05:09;16.27;;;11.70;;
21501;SDS011;27639;48.674;9.242;2022-08-19T01:07:38;15.43;;;12.05;;
21501;SDS011;27639;48.674;9.242;2022-08-19T01:10:06;15.85;;;12.68;;
21501;SDS011;27639;48.674;9.242;2022-08-19T01:12:35;16.60;;;12.45;;
21501;SDS011;27639;48.674;9.242;2022-08-19T01:15:02;16.30;;;12.20;;
21501;SDS011;27639;48.674;9.242;2022-08-19T01:17:28;17.85;;;12.02;;
21501;SDS011;27639;48.674;9.242;2022-08-19T01:19:54;16.58;;;11.77;;
21501;SDS011;27639;48.674;9.242;2022-08-19T01:24:49;17.20;;;12.63;;
21501;SDS011;27639;48.674;9.242;2022-08-19T01:27:16;15.40;;;11.85;;
21501;SDS011;27639;48.674;9.242;2022-08-19T01:29:42;16.58;;;11.77;;
21501;SDS011;27639;48.674;9.242;2022-08-19T01:32:11;16.35;;;12.52;;
21501;SDS011;27639;48.674;9.242;2022-08-19T01:34:40;16.38;;;12.07;;
21501;SDS011;27639;48.674;9.242;2022-08-19T01:37:07;17.15;;;12.15;;
21501;SDS011;27639;48.674;9.242;2022-08-19T01:39:36;17.00;;;11.50;;
21501;SDS011;27639;48.674;9.242;2022-08-19T01:42:03;17.77;;;12.55;;
21501;SDS011;27639;48.674;9.242;2022-08-19T01:44:30;15.38;;;11.32;;
21501;SDS011;27639;48.674;9.242;2022-08-19T01:46:56;15.98;;;11.82;;
21501;SDS011;27639;48.674;9.242;2022-08-19T01:49:22;17.02;;;12.18;;
21501;SDS011;27639;48.674;9.242;2022-08-19T01:51:50;18.15;;;12.38;;
21501;SDS011;27639;48.674;9.242;2022-08-19T01:54:17;15.38;;;11.07;;
21501;SDS011;27639;48.674;9.242;2022-08-19T01:56:46;16.70;;;12.00;;
21501;SDS011;27639;48.674;9.242;2022-08-19T01:59:16;19.05;;;11.45;;
21501;SDS011;27639;48.674;9.242;2022-08-19T02:01:43;17.08;;;12.50;;
21501;SDS011;27639;48.674;9.242;2022-08-19T02:04:09;16.02;;;11.93;;
21501;SDS011;27639;48.674;9.242;2022-08-19T02:06:35;19.00;;;12.45;;
21501;SDS011;27639;48.674;9.242;2022-08-19T02:09:02;16.05;;;11.60;;
21501;SDS011;27639;48.674;9.242;2022-08-19T02:11:33;16.58;;;11.70;;
21501;SDS011;27639;48.674;9.242;2022-08-19T02:14:01;17.55;;;12.00;;
21501;SDS011;27639;48.674;9.242;2022-08-19T02:16:29;17.20;;;11.93;;
21501;SDS011;27639;48.674;9.242;2022-08-19T02:18:55;17.38;;;12.25;;
21501;SDS011;27639;48.674;9.242;2022-08-19T02:21:21;17.70;;;12.63;;
21501;SDS011;27639;48.674;9.242;2022-08-19T02:23:48;17.65;;;12.50;;
21501;SDS011;27639;48.674;9.242;2022-08-19T02:26:15;19.10;;;13.40;;
21501;SDS011;27639;48.674;9.242;2022-08-19T02:28:41;19.00;;;13.40;;
21501;SDS011;27639;48.674;9.242;2022-08-19T02:31:12;16.33;;;12.48;;
21501;SDS011;27639;48.674;9.242;2022-08-19T02:33:42;18.42;;;12.43;;
21501;SDS011;27639;48.674;9.242;2022-08-19T02:36:09;17.08;;;12.43;;
21501;SDS011;27639;48.674;9.242;2022-08-19T02:38:35;16.30;;;12.43;;
21501;SDS011;27639;48.674;9.242;2022-08-19T02:41:11;17.65;;;12.88;;
21501;SDS011;27639;48.674;9.242;2022-08-19T02:43:38;16.92;;;12.00;;
21501;SDS011;27639;48.674;9.242;2022-08-19T02:46:18;18.85;;;12.90;;
21501;SDS011;27639;48.674;9.242;2022-08-19T02:48:49;17.40;;;13.15;;
21501;SDS011;27639;48.674;9.242;2022-08-19T02:51:17;19.55;;;12.80;;
21501;SDS011;27639;48.674;9.242;2022-08-19T02:53:45;18.92;;;13.18;;
21501;SDS011;27639;48.674;9.242;2022-08-19T02:56:11;17.85;;;12.70;;
21501;SDS011;27639;48.674;9.242;2022-08-19T02:58:37;18.35;;;12.90;;
21501;SDS011;27639;48.674;9.242;2022-08-19T03:01:03;19.25;;;13.18;;
21501;SDS011;27639;48.674;9.242;2022-08-19T03:03:29;17.25;;;12.95;;
21501;SDS011;27639;48.674;9.242;2022-08-19T03:08:53;18.33;;;13.30;;
21501;SDS011;27639;48.674;9.242;2022-08-19T03:11:20;21.15;;;14.35;;
21501;SDS011;27639;48.674;9.242;2022-08-19T03:13:45;19.33;;;14.15;;
21501;SDS011;27639;48.674;9.242;2022-08-19T03:16:14;19.13;;;13.70;;
21501;SDS011;27639;48.674;9.242;2022-08-19T03:18:40;19.15;;;13.65;;
21501;SDS011;27639;48.674;9.242;2022-08-19T03:21:06;19.58;;;14.32;;
21501;SDS011;27639;48.674;9.242;2022-08-19T03:23:32;19.77;;;13.80;;
21501;SDS011;27639;48.674;9.242;2022-08-19T03:25:58;21.10;;;13.80;;
21501;SDS011;27639;48.674;9.242;2022-08-19T03:28:24;18.17;;;13.10;;
21501;SDS011;27639;48.674;9.242;2022-08-19T03:31:00;20.65;;;13.60;;
21501;SDS011;27639;48.674;9.242;2022-08-19T03:33:28;19.55;;;13.98;;
21501;SDS011;27639;48.674;9.242;2022-08-19T03:36:01;21.70;;;14.32;;
21501;SDS011;27639;48.674;9.242;2022-08-19T03:38:30;20.42;;;13.65;;
21501;SDS011;27639;48.674;9.242;2022-08-19T03:40:57;22.15;;;14.73;;
21501;SDS011;27639;48.674;9.242;2022-08-19T03:43:26;19.40;;;13.57;;
21501;SDS011;27639;48.674;9.242;2022-08-19T03:46:00;22.42;;;14.30;;
21501;SDS011;27639;48.674;9.242;2022-08-19T03:48:27;21.75;;;13.68;;
21501;SDS011;27639;48.674;9.242;2022-08-19T03:50:54;20.20;;;14.95;;
21501;SDS011;27639;48.674;9.242;2022-08-19T03:53:20;20.33;;;14.25;;
21501;SDS011;27639;48.674;9.242;2022-08-19T03:55:46;20.88;;;13.85;;
21501;SDS011;27639;48.674;9.242;2022-08-19T03:58:11;18.83;;;13.50;;
21501;SDS011;27639;48.674;9.242;2022-08-19T04:00:37;22.58;;;15.05;;
21501;SDS011;27639;48.674;9.242;2022-08-19T04:03:02;21.60;;;14.55;;
21501;SDS011;27639;48.674;9.242;2022-08-19T04:05:28;22.08;;;15.50;;
21501;SDS011;27639;48.674;9.242;2022-08-19T04:07:54;19.38;;;13.85;;
21501;SDS011;27639;48.674;9.242;2022-08-19T04:10:23;23.30;;;15.98;;
21501;SDS011;27639;48.674;9.242;2022-08-19T04:12:49;23.35;;;16.08;;
21501;SDS011;27639;48.674;9.242;2022-08-19T04:15:15;23.42;;;16.15;;
21501;SDS011;27639;48.674;9.242;2022-08-19T04:17:41;24.08;;;16.38;;
21501;SDS011;27639;48.674;9.242;2022-08-19T04:20:07;21.52;;;15.23;;
21501;SDS011;27639;48.674;9.242;2022-08-19T04:22:32;22.33;;;15.88;;
21501;SDS011;27639;48.674;9.242;2022-08-19T04:24:58;25.63;;;15.88;;
21501;SDS011;27639;48.674;9.242;2022-08-19T04:27:24;22.00;;;15.45;;
21501;SDS011;27639;48.674;9.242;2022-08-19T04:29:49;23.45;;;16.65;;
21501;SDS011;27639;48.674;9.242;2022-08-19T04:32:15;25.42;;;16.42;;
21501;SDS011;27639;48.674;9.242;2022-08-19T04:34:40;21.48;;;16.13;;
21501;SDS011;27639;48.674;9.242;2022-08-19T04:37:07;23.17;;;16.70;;
21501;SDS011;27639;48.674;9.242;2022-08-19T04:39:38;23.73;;;16.92;;
21501;SDS011;27639;48.674;9.242;2022-08-19T04:42:23;25.40;;;16.77;;
21501;SDS011;27639;48.674;9.242;2022-08-19T04:45:05;23.38;;;16.25;;
21501;SDS011;27639;48.674;9.242;2022-08-19T04:47:32;27.15;;;17.23;;
21501;SDS011;27639;48.674;9.242;2022-08-19T04:49:58;24.10;;;16.45;;
21501;SDS011;27639;48.674;9.242;2022-08-19T04:52:23;25.45;;;16.52;;
21501;SDS011;27639;48.674;9.242;2022-08-19T04:54:49;25.63;;;17.40;;
21501;SDS011;27639;48.674;9.242;2022-08-19T04:57:15;25.25;;;17.08;;
21501;SDS011;27639;48.674;9.242;2022-08-19T04:59:40;24.38;;;16.70;;
21501;SDS011;27639;48.674;9.242;2022-08-19T05:02:06;25.30;;;16.88;;
21501;SDS011;27639;48.674;9.242;2022-08-19T05:04:34;25.67;;;17.13;;
21501;SDS011;27639;48.674;9.242;2022-08-19T05:07:02;23.05;;;16.05;;
21501;SDS011;27639;48.674;9.242;2022-08-19T05:09:29;23.35;;;16.38;;
21501;SDS011;27639;48.674;9.242;2022-08-19T05:11:54;24.77;;;16.85;;
21501;SDS011;27639;48.674;9.242;2022-08-19T05:14:20;23.42;;;16.05;;
21501;SDS011;27639;48.674;9.242;2022-08-19T05:16:46;23.85;;;17.15;;
21501;SDS011;27639;48.674;9.242;2022-08-19T05:19:12;23.13;;;16.27;;
21501;SDS011;27639;48.674;9.242;2022-08-19T05:21:56;23.45;;;16.33;;
21501;SDS011;27639;48.674;9.242;2022-08-19T05:24:40;22.95;;;15.77;;
21501;SDS011;27639;48.674;9.242;2022-08-19T05:27:06;23.20;;;16.83;;
21501;SDS011;27639;48.674;9.242;2022-08-19T05:29:32;22.65;;;16.20;;
21501;SDS011;27639;48.674;9.242;2022-08-19T05:31:59;23.60;;;16.20;;
21501;SDS011;27639;48.674;9.242;2022-08-19T05:34:27;22.63;;;15.98;;
21501;SDS011;27639;48.674;9.242;2022-08-19T05:36:55;21.52;;;15.57;;
21501;SDS011;27639;48.674;9.242;2022-08-19T05:39:23;22.90;;;16.27;;
21501;SDS011;27639;48.674;9.242;2022-08-19T05:41:53;24.02;;;16.10;;
21501;SDS011;27639;48.674;9.242;2022-08-19T05:44:22;20.67;;;14.93;;
21501;SDS011;27639;48.674;9.242;2022-08-19T05:46:49;23.67;;;16.27;;
21501;SDS011;27639;48.674;9.242;2022-08-19T05:49:18;23.40;;;16.60;;
21501;SDS011;27639;48.674;9.242;2022-08-19T05:51:46;23.58;;;17.15;;
21501;SDS011;27639;48.674;9.242;2022-08-19T05:54:12;22.70;;;16.50;;
21501;SDS011;27639;48.674;9.242;2022-08-19T05:56:38;22.90;;;16.33;;
21501;SDS011;27639;48.674;9.242;2022-08-19T05:59:06;23.52;;;17.17;;
21501;SDS011;27639;48.674;9.242;2022-08-19T06:01:35;23.88;;;16.50;;
21501;SDS011;27639;48.674;9.242;2022-08-19T06:04:05;24.27;;;15.60;;
21501;SDS011;27639;48.674;9.242;2022-08-19T06:06:31;25.75;;;17.55;;
21501;SDS011;27639;48.674;9.242;2022-08-19T06:08:59;22.92;;;15.75;;
21501;SDS011;27639;48.674;9.242;2022-08-19T06:14:02;22.42;;;16.20;;
21501;SDS011;27639;48.674;9.242;2022-08-19T06:16:35;25.92;;;16.55;;
21501;SDS011;27639;48.674;9.242;2022-08-19T06:19:04;26.77;;;17.15;;
21501;SDS011;27639;48.674;9.242;2022-08-19T06:21:33;23.55;;;17.42;;
21501;SDS011;27639;48.674;9.242;2022-08-19T06:24:02;22.08;;;16.02;;
21501;SDS011;27639;48.674;9.242;2022-08-19T06:26:29;25.05;;;17.70;;
21501;SDS011;27639;48.674;9.242;2022-08-19T06:28:55;23.67;;;17.02;;
21501;SDS011;27639;48.674;9.242;2022-08-19T06:31:22;22.98;;;16.35;;
21501;SDS011;27639;48.674;9.242;2022-08-19T06:33:50;23.65;;;16.67;;
21501;SDS011;27639;48.674;9.242;2022-08-19T06:38:58;23.30;;;16.30;;
21501;SDS011;27639;48.674;9.242;2022-08-19T06:41:37;28.67;;;18.15;;
21501;SDS011;27639;48.674;9.242;2022-08-19T06:44:04;24.73;;;16.85;;
21501;SDS011;27639;48.674;9.242;2022-08-19T06:46:30;23.48;;;17.02;;
21501;SDS011;27639;48.674;9.242;2022-08-19T06:48:56;25.27;;;17.13;;
21501;SDS011;27639;48.674;9.242;2022-08-19T06:51:23;23.92;;;16.27;;
21501;SDS011;27639;48.674;9.242;2022-08-19T06:53:50;24.55;;;17.23;;
21501;SDS011;27639;48.674;9.242;2022-08-19T06:56:18;24.88;;;17.60;;
21501;SDS011;27639;48.674;9.242;2022-08-19T06:58:46;22.20;;;16.30;;
21501;SDS011;27639;48.674;9.242;2022-08-19T07:01:15;21.83;;;15.48;;
21501;SDS011;27639;48.674;9.242;2022-08-19T07:03:41;25.42;;;17.95;;
21501;SDS011;27639;48.674;9.242;2022-08-19T07:06:08;22.48;;;16.27;;
21501;SDS011;27639;48.674;9.242;2022-08-19T07:08:37;21.83;;;15.75;;
21501;SDS011;27639;48.674;9.242;2022-08-19T07:11:10;24.08;;;16.98;;
21501;SDS011;27639;48.674;9.242;2022-08-19T07:13:38;22.92;;;16.27;;
21501;SDS011;27639;48.674;9.242;2022-08-19T07:16:08;24.90;;;17.50;;
21501;SDS011;27639;48.674;9.242;2022-08-19T07:18:36;27.35;;;18.15;;
21501;SDS011;27639;48.674;9.242;2022-08-19T07:21:07;24.58;;;16.17;;
21501;SDS011;27639;48.674;9.242;2022-08-19T07:23:37;25.75;;;17.80;;
21501;SDS011;27639;48.674;9.242;2022-08-19T07:26:07;26.95;;;17.80;;
21501;SDS011;27639;48.674;9.242;2022-08-19T07:28:35;25.40;;;17.58;;
21501;SDS011;27639;48.674;9.242;2022-08-19T07:31:05;23.63;;;16.88;;
21501;SDS011;27639;48.674;9.242;2022-08-19T07:33:38;24.85;;;17.58;;
21501;SDS011;27639;48.674;9.242;2022-08-19T07:36:05;24.35;;;16.48;;
21501;SDS011;27639;48.674;9.242;2022-08-19T07:38:32;24.25;;;16.65;;
21501;SDS011;27639;48.674;9.242;2022-08-19T07:40:59;24.95;;;17.73;;
21501;SDS011;27639;48.674;9.242;2022-08-19T07:43:26;27.25;;;19.08;;
21501;SDS011;27639;48.674;9.242;2022-08-19T07:45:52;24.40;;;17.40;;
21501;SDS011;27639;48.674;9.242;2022-08-19T07:48:25;24.88;;;17.45;;
21501;SDS011;27639;48.674;9.242;2022-08-19T07:50:52;25.00;;;17.45;;
21501;SDS011;27639;48.674;9.242;2022-08-19T07:53:19;24.27;;;17.63;;
21501;SDS011;27639;48.674;9.242;2022-08-19T07:55:49;25.63;;;17.80;;
21501;SDS011;27639;48.674;9.242;2022-08-19T07:58:16;25.42;;;18.02;;
21501;SDS011;27639;48.674;9.242;2022-08-19T08:00:44;27.48;;;18.55;;
21501;SDS011;27639;48.674;9.242;2022-08-19T08:03:11;26.90;;;18.52;;
21501;SDS011;27639;48.674;9.242;2022-08-19T08:05:38;25.45;;;17.27;;
21501;SDS011;27639;48.674;9.242;2022-08-19T08:08:22;27.48;;;18.25;;
21501;SDS011;27639;48.674;9.242;2022-08-19T08:11:07;24.13;;;17.35;;
21501;SDS011;27639;48.674;9.242;2022-08-19T08:13:32;24.33;;;17.45;;
21501;SDS011;27639;48.674;9.242;2022-08-19T08:16:00;26.73;;;19.08;;
21501;SDS011;27639;48.674;9.242;2022-08-19T08:18:26;27.58;;;18.08;;
21501;SDS011;27639;48.674;9.242;2022-08-19T08:20:52;24.10;;;18.38;;
21501;SDS011;27639;48.674;9.242;2022-08-19T08:23:17;27.38;;;19.13;;
21501;SDS011;27639;48.674;9.242;2022-08-19T08:25:55;26.30;;;18.90;;
21501;SDS011;27639;48.674;9.242;2022-08-19T08:28:23;25.08;;;17.75;;
21501;SDS011;27639;48.674;9.242;2022-08-19T08:30:50;24.00;;;18.20;;
21501;SDS011;27639;48.674;9.242;2022-08-19T08:33:17;24.17;;;18.02;;
21501;SDS011;27639;48.674;9.242;2022-08-19T08:35:44;26.48;;;18.35;;
21501;SDS011;27639;48.674;9.242;2022-08-19T08:38:10;25.70;;;18.80;;
21501;SDS011;27639;48.674;9.242;2022-08-19T08:46:00;27.10;;;18.65;;
21501;SDS011;27639;48.674;9.242;2022-08-19T08:48:58;25.33;;;17.80;;
21501;SDS011;27639;48.674;9.242;2022-08-19T08:51:48;24.13;;;17.35;;
21501;SDS011;27639;48.674;9.242;2022-08-19T08:54:20;24.88;;;18.38;;
21501;SDS011;27639;48.674;9.242;2022-08-19T08:56:50;25.02;;;18.13;;
21501;SDS011;27639;48.674;9.242;2022-08-19T09:01:43;27.13;;;18.55;;
21501;SDS011;27639;48.674;9.242;2022-08-19T09:04:09;25.33;;;17.77;;
21501;SDS011;27639;48.674;9.242;2022-08-19T09:06:53;24.48;;;17.88;;
21501;SDS011;27639;48.674;9.242;2022-08-19T09:09:40;24.10;;;16.95;;
21501;SDS011;27639;48.674;9.242;2022-08-19T09:14:55;27.63;;;18.30;;
21501;SDS011;27639;48.674;9.242;2022-08-19T09:17:25;24.20;;;18.10;;
21501;SDS011;27639;48.674;9.242;2022-08-19T09:22:30;25.67;;;18.38;;
21501;SDS011;27639;48.674;9.242;2022-08-19T09:24:57;25.20;;;17.73;;
21501;SDS011;27639;48.674;9.242;2022-08-19T09:27:24;26.20;;;18.35;;
21501;SDS011;27639;48.674;9.242;2022-08-19T09:29:51;25.23;;;18.17;;
21501;SDS011;27639;48.674;9.242;2022-08-19T09:32:18;24.45;;;18.13;;
21501;SDS011;27639;48.674;9.242;2022-08-19T09:34:45;23.85;;;17.35;;
21501;SDS011;27639;48.674;9.242;2022-08-19T09:37:10;24.08;;;17.88;;
21501;SDS011;27639;48.674;9.242;2022-08-19T09:39:37;25.83;;;18.10;;
21501;SDS011;27639;48.674;9.242;2022-08-19T09:42:03;25.33;;;17.77;;
21501;SDS011;27639;48.674;9.242;2022-08-19T09:44:30;24.55;;;18.25;;
21501;SDS011;27639;48.674;9.242;2022-08-19T09:46:55;25.10;;;18.42;;
21501;SDS011;27639;48.674;9.242;2022-08-19T09:49:21;28.05;;;18.15;;
21501;SDS011;27639;48.674;9.242;2022-08-19T09:51:50;25.00;;;17.38;;
21501;SDS011;27639;48.674;9.242;2022-08-19T09:54:19;24.52;;;17.23;;
21501;SDS011;27639;48.674;9.242;2022-08-19T09:56:44;23.85;;;17.90;;
21501;SDS011;27639;48.674;9.242;2022-08-19T09:59:10;22.48;;;16.63;;
21501;SDS011;27639;48.674;9.242;2022-08-19T10:01:37;22.13;;;16.83;;
21501;SDS011;27639;48.674;9.242;2022-08-19T10:04:03;23.75;;;17.08;;
21501;SDS011;27639;48.674;9.242;2022-08-19T10:06:33;23.35;;;17.50;;
21501;SDS011;27639;48.674;9.242;2022-08-19T10:09:01;26.38;;;19.25;;
21501;SDS011;27639;48.674;9.242;2022-08-19T10:11:29;25.50;;;17.98;;
21501;SDS011;27639;48.674;9.242;2022-08-19T10:13:55;25.23;;;18.08;;
21501;SDS011;27639;48.674;9.242;2022-08-19T10:16:21;23.45;;;17.17;;
21501;SDS011;27639;48.674;9.242;2022-08-19T10:18:48;24.95;;;18.92;;
21501;SDS011;27639;48.674;9.242;2022-08-19T10:23:43;24.92;;;17.50;;
21501;SDS011;27639;48.674;9.242;2022-08-19T10:26:16;23.73;;;17.33;;
21501;SDS011;27639;48.674;9.242;2022-08-19T10:28:44;25.50;;;17.73;;
21501;SDS011;27639;48.674;9.242;2022-08-19T10:31:10;25.08;;;18.70;;
21501;SDS011;27639;48.674;9.242;2022-08-19T10:33:38;23.98;;;18.58;;
21501;SDS011;27639;48.674;9.242;2022-08-19T10:36:15;24.45;;;18.45;;
21501;SDS011;27639;48.674;9.242;2022-08-19T10:38:42;23.42;;;17.40;;
21501;SDS011;27639;48.674;9.242;2022-08-19T10:41:14;23.05;;;17.25;;
21501;SDS011;27639;48.674;9.242;2022-08-19T10:43:41;22.88;;;16.90;;
21501;SDS011;27639;48.674;9.242;2022-08-19T10:46:10;22.67;;;17.27;;
21501;SDS011;27639;48.674;9.242;2022-08-19T10:48:37;25.60;;;17.73;;
21501;SDS011;27639;48.674;9.242;2022-08-19T10:51:03;23.95;;;17.90;;
21501;SDS011;27639;48.674;9.242;2022-08-19T10:53:48;23.73;;;17.65;;
21501;SDS011;27639;48.674;9.242;2022-08-19T10:56:14;25.00;;;18.67;;
21501;SDS011;27639;48.674;9.242;2022-08-19T10:58:59;25.70;;;18.08;;
21501;SDS011;27639;48.674;9.242;2022-08-19T11:01:25;26.60;;;18.38;;
21501;SDS011;27639;48.674;9.242;2022-08-19T11:03:51;22.52;;;17.23;;
21501;SDS011;27639;48.674;9.242;2022-08-19T11:06:17;26.13;;;18.02;;
21501;SDS011;27639;48.674;9.242;2022-08-19T11:08:45;23.42;;;17.52;;
21501;SDS011;27639;48.674;9.242;2022-08-19T11:11:11;24.40;;;18.48;;
21501;SDS011;27639;48.674;9.242;2022-08-19T11:13:38;24.60;;;18.00;;
21501;SDS011;27639;48.674;9.242;2022-08-19T11:16:10;24.58;;;18.30;;
21501;SDS011;27639;48.674;9.242;2022-08-19T11:18:44;25.23;;;18.42;;
21501;SDS011;27639;48.674;9.242;2022-08-19T11:21:19;24.48;;;19.10;;
21501;SDS011;27639;48.674;9.242;2022-08-19T11:26:15;26.35;;;19.02;;
21501;SDS011;27639;48.674;9.242;2022-08-19T11:28:42;32.13;;;21.42;;
21501;SDS011;27639;48.674;9.242;2022-08-19T11:31:11;27.38;;;20.80;;
21501;SDS011;27639;48.674;9.242;2022-08-19T11:33:39;29.55;;;21.58;;
21501;SDS011;27639;48.674;9.242;2022-08-19T11:36:05;29.15;;;21.33;;
21501;SDS011;27639;48.674;9.242;2022-08-19T11:38:31;28.25;;;20.20;;
21501;SDS011;27639;48.674;9.242;2022-08-19T11:41:00;27.63;;;20.40;;
21501;SDS011;27639;48.674;9.242;2022-08-19T11:43:28;30.58;;;22.17;;
21501;SDS011;27639;48.674;9.242;2022-08-19T11:45:55;33.15;;;21.77;;
21501;SDS011;27639;48.674;9.242;2022-08-19T11:48:22;30.75;;;20.65;;
21501;SDS011;27639;48.674;9.242;2022-08-19T11:50:52;29.98;;;20.50;;
21501;SDS011;27639;48.674;9.242;2022-08-19T11:53:21;29.17;;;20.92;;
21501;SDS011;27639;48.674;9.242;2022-08-19T11:55:48;28.83;;;20.75;;
21501;SDS011;27639;48.674;9.242;2022-08-19T11:58:14;28.80;;;20.13;;
21501;SDS011;27639;48.674;9.242;2022-08-19T12:00:41;30.80;;;21.73;;
21501;SDS011;27639;48.674;9.242;2022-08-19T12:03:07;29.00;;;21.83;;
21501;SDS011;27639;48.674;9.242;2022-08-19T12:05:33;27.90;;;20.65;;
21501;SDS011;27639;48.674;9.242;2022-08-19T12:08:02;34.15;;;21.88;;
21501;SDS011;27639;48.674;9.242;2022-08-19T12:10:27;30.90;;;20.90;;
21501;SDS011;27639;48.674;9.242;2022-08-19T12:12:53;29.67;;;21.42;;
21501;SDS011;27639;48.674;9.242;2022-08-19T12:15:18;30.35;;;22.60;;
21501;SDS011;27639;48.674;9.242;2022-08-19T12:17:44;31.52;;;21.90;;
21501;SDS011;27639;48.674;9.242;2022-08-19T12:20:10;28.50;;;21.40;;
21501;SDS011;27639;48.674;9.242;2022-08-19T12:22:38;30.00;;;21.73;;
21501;SDS011;27639;48.674;9.242;2022-08-19T12:25:06;31.83;;;21.95;;
21501;SDS011;27639;48.674;9.242;2022-08-19T12:27:33;29.55;;;21.73;;
21501;SDS011;27639;48.674;9.242;2022-08-19T12:30:00;33.05;;;22.33;;
21501;SDS011;27639;48.674;9.242;2022-08-19T12:32:27;33.60;;;22.73;;
21501;SDS011;27639;48.674;9.242;2022-08-19T12:34:52;32.00;;;21.63;;
21501;SDS011;27639;48.674;9.242;2022-08-19T12:37:19;30.98;;;22.02;;
21501;SDS011;27639;48.674;9.242;2022-08-19T12:39:45;29.90;;;21.20;;
21501;SDS011;27639;48.674;9.242;2022-08-19T12:42:11;33.28;;;21.42;;
21501;SDS011;27639;48.674;9.242;2022-08-19T12:44:38;31.48;;;22.13;;
21501;SDS011;27639;48.674;9.242;2022-08-19T12:47:05;31.60;;;22.13;;
21501;SDS011;27639;48.674;9.242;2022-08-19T12:49:32;32.70;;;22.77;;
21501;SDS011;27639;48.674;9.242;2022-08-19T12:52:02;30.73;;;21.88;;
21501;SDS011;27639;48.674;9.242;2022-08-19T12:54:29;33.45;;;22.52;;
21501;SDS011;27639;48.674;9.242;2022-08-19T12:56:55;35.22;;;22.58;;
21501;SDS011;27639;48.674;9.242;2022-08-19T12:59:24;34.40;;;23.58;;
21501;SDS011;27639;48.674;9.242;2022-08-19T13:01:51;31.13;;;22.40;;
21501;SDS011;27639;48.674;9.242;2022-08-19T13:04:17;32.47;;;21.83;;
21501;SDS011;27639;48.674;9.242;2022-08-19T13:06:43;31.50;;;22.63;;
21501;SDS011;27639;48.674;9.242;2022-08-19T13:09:08;32.88;;;22.65;;
21501;SDS011;27639;48.674;9.242;2022-08-19T13:11:34;32.83;;;23.52;;
21501;SDS011;27639;48.674;9.242;2022-08-19T13:14:00;32.05;;;22.55;;
21501;SDS011;27639;48.674;9.242;2022-08-19T13:16:27;33.85;;;22.98;;
21501;SDS011;27639;48.674;9.242;2022-08-19T13:18:53;32.65;;;22.73;;
21501;SDS011;27639;48.674;9.242;2022-08-19T13:21:21;33.53;;;23.52;;
21501;SDS011;27639;48.674;9.242;2022-08-19T13:23:49;32.72;;;23.45;;
21501;SDS011;27639;48.674;9.242;2022-08-19T13:26:16;30.85;;;21.75;;
21501;SDS011;27639;48.674;9.242;2022-08-19T13:28:42;30.48;;;22.67;;
21501;SDS011;27639;48.674;9.242;2022-08-19T13:31:29;31.50;;;22.27;;
21501;SDS011;27639;48.674;9.242;2022-08-19T13:34:16;30.48;;;21.85;;
21501;SDS011;27639;48.674;9.242;2022-08-19T13:36:43;29.92;;;21.88;;
21501;SDS011;27639;48.674;9.242;2022-08-19T13:39:08;31.85;;;22.17;;
21501;SDS011;27639;48.674;9.242;2022-08-19T13:41:35;29.80;;;21.63;;
21501;SDS011;27639;48.674;9.242;2022-08-19T13:44:01;30.85;;;22.13;;
21501;SDS011;27639;48.674;9.242;2022-08-19T13:46:27;30.23;;;21.75;;
21501;SDS011;27639;48.674;9.242;2022-08-19T13:48:54;29.52;;;21.77;;
21501;SDS011;27639;48.674;9.242;2022-08-19T13:51:19;31.35;;;21.42;;
21501;SDS011;27639;48.674;9.242;2022-08-19T13:53:45;30.33;;;21.65;;
21501;SDS011;27639;48.674;9.242;2022-08-19T13:56:15;28.23;;;20.85;;
21501;SDS011;27639;48.674;9.242;2022-08-19T13:58:42;29.48;;;20.05;;
21501;SDS011;27639;48.674;9.242;2022-08-19T14:01:08;30.13;;;21.48;;
21501;SDS011;27639;48.674;9.242;2022-08-19T14:03:34;30.65;;;20.63;;
21501;SDS011;27639;48.674;9.242;2022-08-19T14:06:00;27.48;;;19.77;;
21501;SDS011;27639;48.674;9.242;2022-08-19T14:08:26;27.73;;;20.77;;
21501;SDS011;27639;48.674;9.242;2022-08-19T14:10:53;26.92;;;20.58;;
21501;SDS011;27639;48.674;9.242;2022-08-19T14:13:20;28.88;;;20.13;;
21501;SDS011;27639;48.674;9.242;2022-08-19T14:15:48;27.75;;;20.63;;
21501;SDS011;27639;48.674;9.242;2022-08-19T14:18:15;26.08;;;19.48;;
21501;SDS011;27639;48.674;9.242;2022-08-19T14:20:42;25.77;;;18.80;;
21501;SDS011;27639;48.674;9.242;2022-08-19T14:23:08;26.10;;;18.95;;
21501;SDS011;27639;48.674;9.242;2022-08-19T14:25:34;26.20;;;18.77;;
21501;SDS011;27639;48.674;9.242;2022-08-19T14:28:00;25.27;;;19.05;;
21501;SDS011;27639;48.674;9.242;2022-08-19T14:30:27;25.45;;;19.55;;
21501;SDS011;27639;48.674;9.242;2022-08-19T14:32:56;27.48;;;19.60;;
21501;SDS011;27639;48.674;9.242;2022-08-19T14:35:23;24.85;;;19.20;;
21501;SDS011;27639;48.674;9.242;2022-08-19T14:37:49;27.08;;;19.83;;
21501;SDS011;27639;48.674;9.242;2022-08-19T14:40:19;25.35;;;18.58;;
21501;SDS011;27639;48.674;9.242;2022-08-19T14:42:51;25.80;;;19.83;;
21501;SDS011;27639;48.674;9.242;2022-08-19T14:45:20;24.35;;;18.92;;
21501;SDS011;27639;48.674;9.242;2022-08-19T14:47:46;24.90;;;19.42;;
21501;SDS011;27639;48.674;9.242;2022-08-19T14:50:12;25.63;;;18.42;;
21501;SDS011;27639;48.674;9.242;2022-08-19T14:52:38;23.38;;;18.15;;
21501;SDS011;27639;48.674;9.242;2022-08-19T14:55:05;25.67;;;18.52;;